sensor_id;sensor_type;location;lat;lon;timestamp;pressure;altitude;pressure_sealevel;temperature;humidity
45789;BME280;31492;54.856;26.318;2022-07-23T00:03:39;999.8;;;20;100
45789;BME280;31492;54.856;26.318;2022-07-23T00:08:38;999.8;;;20;100
45789;BME280;31492;54.856;26.318;2022-07-23T00:13:38;999.8;;;20;100
45789;BME280;31492;54.856;26.318;2022-07-23T00:18:38;999.8;;;20;100
45789;BME280;31492;54.856;26.318;2022-07-23T00:23:38;999.8;;;20;100
45789;BME280;31492;54.856;26.318;2022-07-23T00:28:38;999.8;;;20;100
45789;BME280;31492;54.856;26.318;2022-07-23T00:33:38;999.8;;;20;100
45789;BME280;31492;54.856;26.318;2022-07-23T00:38:38;999.8;;;20;100
45789;BME280;31492;54.856;26.318;2022-07-23T00:43:38;999.8;;;20;100
45789;BME280;31492;54.856;26.318;2022-07-23T00:48:38;999.8;;;20;100
45789;BME280;31492;54.856;26.318;2022-07-23T00:53:38;999.8;;;20;100
45789;BME280;31492;54.856;26.318;2022-07-23T00:58:39;999.8;;;20;100
45789;BME280;31492;54.856;26.318;2022-07-23T01:03:38;999.8;;;20;100
45789;BME280;31492;54.856;26.318;2022-07-23T01:08:38;999.8;;;20;100
45789;BME280;31492;54.856;26.318;2022-07-23T01:13:42;999.8;;;20;100
45789;BME280;31492;54.856;26.318;2022-07-23T01:18:39;999.5;;;17.5;100
45789;BME280;31492;54.856;26.318;2022-07-23T01:23:39;999.5;;;17.4;100
45789;BME280;31492;54.856;26.318;2022-07-23T01:28:38;999.5;;;17.4;100
45789;BME280;31492;54.856;26.318;2022-07-23T01:33:38;999.5;;;17.4;100
45789;BME280;31492;54.856;26.318;2022-07-23T01:38:38;999.5;;;17.3;100
45789;BME280;31492;54.856;26.318;2022-07-23T01:43:39;999.4;;;17.2;100
45789;BME280;31492;54.856;26.318;2022-07-23T01:48:39;999.4;;;17.3;100
45789;BME280;31492;54.856;26.318;2022-07-23T01:53:38;999.3;;;17.2;100
45789;BME280;31492;54.856;26.318;2022-07-23T01:58:38;999.3;;;17.2;100
45789;BME280;31492;54.856;26.318;2022-07-23T02:03:38;999.3;;;17.2;100
45789;BME280;31492;54.856;26.318;2022-07-23T02:08:38;999.3;;;17.2;100
45789;BME280;31492;54.856;26.318;2022-07-23T02:13:38;999.3;;;17.2;100
45789;BME280;31492;54.856;26.318;2022-07-23T02:18:38;999.3;;;17.3;100
45789;BME280;31492;54.856;26.318;2022-07-23T02:23:39;999.4;;;17.3;100
45789;BME280;31492;54.856;26.318;2022-07-23T02:28:38;999.3;;;17.4;100
45789;BME280;31492;54.856;26.318;2022-07-23T02:33:38;999.3;;;17.2;100
45789;BME280;31492;54.856;26.318;2022-07-23T02:38:38;999.3;;;17.2;100
45789;BME280;31492;54.856;26.318;2022-07-23T02:43:38;999.3;;;17.2;100
45789;BME280;31492;54.856;26.318;2022-07-23T02:48:38;999.2;;;17.1;100
45789;BME280;31492;54.856;26.318;2022-07-23T02:53:38;999.2;;;17.2;100
45789;BME280;31492;54.856;26.318;2022-07-23T02:58:39;999.1;;;17.1;100
45789;BME280;31492;54.856;26.318;2022-07-23T03:03:39;999.1;;;17.1;100
45789;BME280;31492;54.856;26.318;2022-07-23T03:08:39;999.1;;;17.1;100
45789;BME280;31492;54.856;26.318;2022-07-23T03:13:39;999.1;;;17.1;100
45789;BME280;31492;54.856;26.318;2022-07-23T03:18:39;999.1;;;17.1;100
45789;BME280;31492;54.856;26.318;2022-07-23T03:23:39;999;;;17.1;100
45789;BME280;31492;54.856;26.318;2022-07-23T03:28:38;999;;;17.1;100
45789;BME280;31492;54.856;26.318;2022-07-23T03:33:38;999;;;17.2;100
45789;BME280;31492;54.856;26.318;2022-07-23T03:38:38;998.9;;;17.2;100
45789;BME280;31492;54.856;26.318;2022-07-23T03:43:38;998.9;;;17.2;100
45789;BME280;31492;54.856;26.318;2022-07-23T03:48:39;998.9;;;17.2;100
45789;BME280;31492;54.856;26.318;2022-07-23T03:53:38;998.9;;;17.3;100
45789;BME280;31492;54.856;26.318;2022-07-23T03:58:38;999;;;17.4;100
45789;BME280;31492;54.856;26.318;2022-07-23T04:03:38;998.9;;;17.5;100
45789;BME280;31492;54.856;26.318;2022-07-23T04:08:39;998.9;;;17.6;100
45789;BME280;31492;54.856;26.318;2022-07-23T04:13:39;998.9;;;17.7;100
45789;BME280;31492;54.856;26.318;2022-07-23T04:18:39;998.9;;;17.9;100
45789;BME280;31492;54.856;26.318;2022-07-23T04:23:38;998.8;;;17.9;100
45789;BME280;31492;54.856;26.318;2022-07-23T04:28:39;998.7;;;18;100
45789;BME280;31492;54.856;26.318;2022-07-23T04:33:38;998.8;;;18.3;100
45789;BME280;31492;54.856;26.318;2022-07-23T04:38:38;998.8;;;18.4;100
45789;BME280;31492;54.856;26.318;2022-07-23T04:43:38;998.8;;;18.5;100
45789;BME280;31492;54.856;26.318;2022-07-23T04:48:38;998.8;;;18.6;100
45789;BME280;31492;54.856;26.318;2022-07-23T04:53:38;998.8;;;18.8;100
45789;BME280;31492;54.856;26.318;2022-07-23T04:58:39;998.8;;;18.9;100
45789;BME280;31492;54.856;26.318;2022-07-23T05:03:38;998.7;;;19;100
45789;BME280;31492;54.856;26.318;2022-07-23T05:08:39;998.7;;;19.2;100
45789;BME280;31492;54.856;26.318;2022-07-23T05:13:39;998.6;;;19.5;100
45789;BME280;31492;54.856;26.318;2022-07-23T05:18:39;998.6;;;19.7;100
45789;BME280;31492;54.856;26.318;2022-07-23T05:23:38;998.5;;;19.9;100
45789;BME280;31492;54.856;26.318;2022-07-23T05:28:38;998.5;;;20.2;100
45789;BME280;31492;54.856;26.318;2022-07-23T05:33:38;998.4;;;20.4;100
45789;BME280;31492;54.856;26.318;2022-07-23T05:38:38;998.3;;;20.7;100
45789;BME280;31492;54.856;26.318;2022-07-23T05:43:38;998.3;;;21.1;100
45789;BME280;31492;54.856;26.318;2022-07-23T05:48:38;998.3;;;21.5;100
45789;BME280;31492;54.856;26.318;2022-07-23T05:53:39;998.4;;;21.8;100
45789;BME280;31492;54.856;26.318;2022-07-23T05:58:39;998.4;;;21.9;100
45789;BME280;31492;54.856;26.318;2022-07-23T06:03:39;998.4;;;22;100
45789;BME280;31492;54.856;26.318;2022-07-23T06:08:39;998.4;;;22.2;100
45789;BME280;31492;54.856;26.318;2022-07-23T06:13:38;998.4;;;22.4;100
45789;BME280;31492;54.856;26.318;2022-07-23T06:18:39;998.3;;;22.7;100
45789;BME280;31492;54.856;26.318;2022-07-23T06:23:38;998.3;;;23;100
45789;BME280;31492;54.856;26.318;2022-07-23T06:28:38;998.3;;;23.4;100
45789;BME280;31492;54.856;26.318;2022-07-23T06:33:38;998.3;;;23.6;100
45789;BME280;31492;54.856;26.318;2022-07-23T06:38:38;998.3;;;23.8;100
45789;BME280;31492;54.856;26.318;2022-07-23T06:43:38;998.3;;;24;100
45789;BME280;31492;54.856;26.318;2022-07-23T06:48:38;998.3;;;24.5;100
45789;BME280;31492;54.856;26.318;2022-07-23T06:53:38;998.3;;;24.5;100
45789;BME280;31492;54.856;26.318;2022-07-23T06:58:38;998.3;;;24.9;100
45789;BME280;31492;54.856;26.318;2022-07-23T07:03:39;998.3;;;25.5;100
45789;BME280;31492;54.856;26.318;2022-07-23T07:08:38;998.3;;;26.1;100
45789;BME280;31492;54.856;26.318;2022-07-23T07:13:39;998.2;;;26.4;100
45789;BME280;31492;54.856;26.318;2022-07-23T07:18:38;998.1;;;27.1;100
45789;BME280;31492;54.856;26.318;2022-07-23T07:23:38;998.1;;;27.1;100
45789;BME280;31492;54.856;26.318;2022-07-23T07:28:39;998.1;;;27.3;100
45789;BME280;31492;54.856;26.318;2022-07-23T07:33:39;998;;;28.1;100
45789;BME280;31492;54.856;26.318;2022-07-23T07:38:38;998;;;28.8;100
45789;BME280;31492;54.856;26.318;2022-07-23T07:43:38;998;;;28;100
45789;BME280;31492;54.856;26.318;2022-07-23T07:48:39;998;;;27.8;100
45789;BME280;31492;54.856;26.318;2022-07-23T07:53:38;998;;;28.4;100
45789;BME280;31492;54.856;26.318;2022-07-23T07:58:38;997.9;;;29.3;100
45789;BME280;31492;54.856;26.318;2022-07-23T08:03:38;997.9;;;29.8;98.7
45789;BME280;31492;54.856;26.318;2022-07-23T08:08:39;997.9;;;30.5;90.2
45789;BME280;31492;54.856;26.318;2022-07-23T08:13:38;997.9;;;30.5;87.5
45789;BME280;31492;54.856;26.318;2022-07-23T08:18:39;997.9;;;30.8;94.1
45789;BME280;31492;54.856;26.318;2022-07-23T08:23:39;997.9;;;32;80.6
45789;BME280;31492;54.856;26.318;2022-07-23T08:28:39;998;;;32.2;61.6
45789;BME280;31492;54.856;26.318;2022-07-23T08:33:39;998.1;;;32.2;65.1
45789;BME280;31492;54.856;26.318;2022-07-23T08:38:39;998.1;;;32;65.2
45789;BME280;31492;54.856;26.318;2022-07-23T08:43:38;998.1;;;31.4;64.8
45789;BME280;31492;54.856;26.318;2022-07-23T08:48:39;998.1;;;31.4;74.2
45789;BME280;31492;54.856;26.318;2022-07-23T08:53:39;998.1;;;32.4;70.4
45789;BME280;31492;54.856;26.318;2022-07-23T08:58:39;998.1;;;32.5;65.1
45789;BME280;31492;54.856;26.318;2022-07-23T09:03:38;998.1;;;32.6;64.8
45789;BME280;31492;54.856;26.318;2022-07-23T09:08:40;998;;;32.4;65.6
45789;BME280;31492;54.856;26.318;2022-07-23T09:13:41;997.9;;;33;68.1
45789;BME280;31492;54.856;26.318;2022-07-23T09:18:46;997.8;;;33.3;72.8
45789;BME280;31492;54.856;26.318;2022-07-23T09:23:47;997.8;;;34.1;65.8
45789;BME280;31492;54.856;26.318;2022-07-23T09:28:47;997.9;;;33.5;60.1
45789;BME280;31492;54.856;26.318;2022-07-23T09:33:39;997.8;;;32.9;64.2
45789;BME280;31492;54.856;26.318;2022-07-23T09:38:54;997.9;;;33.4;64.1
45789;BME280;31492;54.856;26.318;2022-07-23T09:43:38;997.9;;;33.7;66.2
45789;BME280;31492;54.856;26.318;2022-07-23T09:48:38;997.9;;;35.1;61.3
45789;BME280;31492;54.856;26.318;2022-07-23T09:53:39;997.9;;;35.5;54.8
45789;BME280;31492;54.856;26.318;2022-07-23T09:58:39;997.9;;;35.4;54.3
45789;BME280;31492;54.856;26.318;2022-07-23T10:03:39;997.9;;;34.7;51.9
45789;BME280;31492;54.856;26.318;2022-07-23T10:08:40;997.9;;;34.7;58.3
45789;BME280;31492;54.856;26.318;2022-07-23T10:13:39;997.8;;;35.4;54.2
45789;BME280;31492;54.856;26.318;2022-07-23T10:18:39;997.8;;;36.4;50.2
45789;BME280;31492;54.856;26.318;2022-07-23T10:23:42;997.8;;;36.4;48.5
45789;BME280;31492;54.856;26.318;2022-07-23T10:28:42;997.8;;;36.5;49.5
45789;BME280;31492;54.856;26.318;2022-07-23T10:33:56;997.8;;;36.7;41.9
45789;BME280;31492;54.856;26.318;2022-07-23T10:38:45;997.8;;;36.8;43.6
45789;BME280;31492;54.856;26.318;2022-07-23T10:43:39;997.9;;;36.7;44.9
45789;BME280;31492;54.856;26.318;2022-07-23T10:48:39;997.9;;;35.3;53.5
45789;BME280;31492;54.856;26.318;2022-07-23T10:53:55;997.9;;;35.5;61
45789;BME280;31492;54.856;26.318;2022-07-23T10:58:46;997.9;;;36;54.1
45789;BME280;31492;54.856;26.318;2022-07-23T11:03:39;998;;;34.6;61.3
45789;BME280;31492;54.856;26.318;2022-07-23T11:08:39;998;;;34;73
45789;BME280;31492;54.856;26.318;2022-07-23T11:13:40;997.9;;;34.5;56.7
45789;BME280;31492;54.856;26.318;2022-07-23T11:18:56;997.9;;;33.7;64.3
45789;BME280;31492;54.856;26.318;2022-07-23T11:24:11;997.9;;;33.2;75
45789;BME280;31492;54.856;26.318;2022-07-23T11:28:39;997.8;;;34.5;66.7
45789;BME280;31492;54.856;26.318;2022-07-23T11:33:39;997.8;;;34.6;55.3
45789;BME280;31492;54.856;26.318;2022-07-23T11:38:39;997.8;;;33.8;63.6
45789;BME280;31492;54.856;26.318;2022-07-23T11:43:39;997.8;;;32.4;87.6
45789;BME280;31492;54.856;26.318;2022-07-23T11:48:39;997.8;;;32.1;92.1
45789;BME280;31492;54.856;26.318;2022-07-23T11:53:39;997.8;;;32.9;80.2
45789;BME280;31492;54.856;26.318;2022-07-23T11:58:39;997.8;;;32.7;80.7
45789;BME280;31492;54.856;26.318;2022-07-23T12:03:48;997.8;;;32.7;92.4
45789;BME280;31492;54.856;26.318;2022-07-23T12:08:42;997.7;;;33.2;83.4
45789;BME280;31492;54.856;26.318;2022-07-23T12:13:39;997.6;;;33.9;60.7
45789;BME280;31492;54.856;26.318;2022-07-23T12:18:39;997.7;;;33.9;70.3
45789;BME280;31492;54.856;26.318;2022-07-23T12:23:39;997.6;;;32.8;77.1
45789;BME280;31492;54.856;26.318;2022-07-23T12:28:39;997.6;;;32;90.4
45789;BME280;31492;54.856;26.318;2022-07-23T12:33:39;997.5;;;32.7;84.7
45789;BME280;31492;54.856;26.318;2022-07-23T12:38:43;997.5;;;33.5;74
45789;BME280;31492;54.856;26.318;2022-07-23T12:43:39;997.6;;;33.6;71.9
45789;BME280;31492;54.856;26.318;2022-07-23T12:48:40;997.6;;;32.7;74.2
45789;BME280;31492;54.856;26.318;2022-07-23T12:53:40;997.6;;;32.6;91.5
45789;BME280;31492;54.856;26.318;2022-07-23T12:58:40;997.5;;;32.7;79.2
45789;BME280;31492;54.856;26.318;2022-07-23T13:03:40;997.5;;;33.4;71.2
45789;BME280;31492;54.856;26.318;2022-07-23T13:08:39;997.5;;;33.1;69.2
45789;BME280;31492;54.856;26.318;2022-07-23T13:13:39;997.5;;;32.3;91
45789;BME280;31492;54.856;26.318;2022-07-23T13:18:39;997.4;;;32.5;75.8
45789;BME280;31492;54.856;26.318;2022-07-23T13:23:39;997.5;;;32.7;79.1
45789;BME280;31492;54.856;26.318;2022-07-23T13:28:39;997.4;;;32.5;85.1
45789;BME280;31492;54.856;26.318;2022-07-23T13:33:39;997.5;;;31.8;99.4
45789;BME280;31492;54.856;26.318;2022-07-23T13:38:39;997.4;;;32.1;82.1
45789;BME280;31492;54.856;26.318;2022-07-23T13:43:39;997.4;;;32;85
45789;BME280;31492;54.856;26.318;2022-07-23T13:48:39;997.4;;;32.2;89.2
45789;BME280;31492;54.856;26.318;2022-07-23T13:53:39;997.3;;;32.4;76.8
45789;BME280;31492;54.856;26.318;2022-07-23T13:58:39;997.2;;;32.6;74.8
45789;BME280;31492;54.856;26.318;2022-07-23T14:03:39;997.2;;;32.5;70.7
45789;BME280;31492;54.856;26.318;2022-07-23T14:08:39;997.2;;;32.5;81
45789;BME280;31492;54.856;26.318;2022-07-23T14:13:39;997.3;;;32.1;93
45789;BME280;31492;54.856;26.318;2022-07-23T14:18:39;997.3;;;31.5;82.5
45789;BME280;31492;54.856;26.318;2022-07-23T14:23:39;997.3;;;31.2;96.4
45789;BME280;31492;54.856;26.318;2022-07-23T14:28:39;997.3;;;30.4;98.8
45789;BME280;31492;54.856;26.318;2022-07-23T14:33:39;997.2;;;30.3;100
45789;BME280;31492;54.856;26.318;2022-07-23T14:38:39;997.2;;;30.4;99.3
45789;BME280;31492;54.856;26.318;2022-07-23T14:43:39;997.2;;;30.1;99.2
45789;BME280;31492;54.856;26.318;2022-07-23T14:48:39;997.2;;;29.8;100
45789;BME280;31492;54.856;26.318;2022-07-23T14:53:39;997.2;;;29.4;100
45789;BME280;31492;54.856;26.318;2022-07-23T14:58:39;997.2;;;29.2;100
45789;BME280;31492;54.856;26.318;2022-07-23T15:03:39;997.1;;;28.9;100
45789;BME280;31492;54.856;26.318;2022-07-23T15:08:39;997.1;;;28.6;100
45789;BME280;31492;54.856;26.318;2022-07-23T15:13:39;997.1;;;28.4;100
45789;BME280;31492;54.856;26.318;2022-07-23T15:18:39;997.1;;;28.4;100
45789;BME280;31492;54.856;26.318;2022-07-23T15:23:39;997.1;;;28.4;100
45789;BME280;31492;54.856;26.318;2022-07-23T15:28:39;997.1;;;28.4;100
45789;BME280;31492;54.856;26.318;2022-07-23T15:33:39;997.1;;;28.2;100
45789;BME280;31492;54.856;26.318;2022-07-23T15:38:39;997.1;;;28.1;100
45789;BME280;31492;54.856;26.318;2022-07-23T15:43:39;997.1;;;27.8;100
45789;BME280;31492;54.856;26.318;2022-07-23T15:48:39;997.1;;;27.6;100
45789;BME280;31492;54.856;26.318;2022-07-23T15:53:39;997.1;;;27.5;100
45789;BME280;31492;54.856;26.318;2022-07-23T15:58:39;997.1;;;27.4;100
45789;BME280;31492;54.856;26.318;2022-07-23T16:03:39;997.1;;;27.3;100
45789;BME280;31492;54.856;26.318;2022-07-23T16:08:39;997.1;;;27.2;100
45789;BME280;31492;54.856;26.318;2022-07-23T16:13:39;997.1;;;27;100
45789;BME280;31492;54.856;26.318;2022-07-23T16:18:39;997.1;;;26.8;100
45789;BME280;31492;54.856;26.318;2022-07-23T16:23:39;997.1;;;26.7;100
45789;BME280;31492;54.856;26.318;2022-07-23T16:28:39;997.1;;;26.5;100
45789;BME280;31492;54.856;26.318;2022-07-23T16:33:39;997;;;26.4;100
45789;BME280;31492;54.856;26.318;2022-07-23T16:38:39;997.1;;;26.3;100
45789;BME280;31492;54.856;26.318;2022-07-23T16:43:39;997.1;;;26.1;100
45789;BME280;31492;54.856;26.318;2022-07-23T16:48:39;997.1;;;26;100
45789;BME280;31492;54.856;26.318;2022-07-23T16:53:39;997.2;;;25.9;100
45789;BME280;31492;54.856;26.318;2022-07-23T16:58:39;997.2;;;25.8;100
45789;BME280;31492;54.856;26.318;2022-07-23T17:03:39;997.2;;;25.7;100
45789;BME280;31492;54.856;26.318;2022-07-23T17:08:39;997.2;;;25.5;100
45789;BME280;31492;54.856;26.318;2022-07-23T17:13:39;997.2;;;25.4;100
45789;BME280;31492;54.856;26.318;2022-07-23T17:18:39;997.2;;;25.3;100
45789;BME280;31492;54.856;26.318;2022-07-23T17:23:39;997.2;;;25.1;100
45789;BME280;31492;54.856;26.318;2022-07-23T17:28:39;997.2;;;25;100
45789;BME280;31492;54.856;26.318;2022-07-23T17:33:39;997.1;;;25;100
45789;BME280;31492;54.856;26.318;2022-07-23T17:38:39;997.1;;;24.9;100
45789;BME280;31492;54.856;26.318;2022-07-23T17:43:39;997.1;;;24.8;100
45789;BME280;31492;54.856;26.318;2022-07-23T17:48:39;997.1;;;24.7;100
45789;BME280;31492;54.856;26.318;2022-07-23T17:53:39;997.1;;;24.6;100
45789;BME280;31492;54.856;26.318;2022-07-23T17:58:39;997.1;;;24.5;100
45789;BME280;31492;54.856;26.318;2022-07-23T18:03:39;997.1;;;24.3;100
45789;BME280;31492;54.856;26.318;2022-07-23T18:08:39;997.1;;;24.2;100
45789;BME280;31492;54.856;26.318;2022-07-23T18:13:39;997.1;;;24.1;100
45789;BME280;31492;54.856;26.318;2022-07-23T18:18:39;997.2;;;24;100
45789;BME280;31492;54.856;26.318;2022-07-23T18:23:39;997.2;;;23.8;100
45789;BME280;31492;54.856;26.318;2022-07-23T18:28:39;997.2;;;23.7;100
45789;BME280;31492;54.856;26.318;2022-07-23T18:33:39;997.3;;;23.6;100
45789;BME280;31492;54.856;26.318;2022-07-23T18:38:39;997.3;;;23.5;100
45789;BME280;31492;54.856;26.318;2022-07-23T18:43:39;997.3;;;23.3;100
45789;BME280;31492;54.856;26.318;2022-07-23T18:48:39;997.4;;;23.1;100
45789;BME280;31492;54.856;26.318;2022-07-23T18:53:39;997.4;;;23.1;100
45789;BME280;31492;54.856;26.318;2022-07-23T18:58:39;997.4;;;23;100
45789;BME280;31492;54.856;26.318;2022-07-23T19:03:39;997.4;;;22.9;100
45789;BME280;31492;54.856;26.318;2022-07-23T19:08:39;997.4;;;22.9;100
45789;BME280;31492;54.856;26.318;2022-07-23T19:13:39;997.4;;;22.9;100
45789;BME280;31492;54.856;26.318;2022-07-23T19:18:39;997.4;;;22.8;100
45789;BME280;31492;54.856;26.318;2022-07-23T19:23:39;997.4;;;22.8;100
45789;BME280;31492;54.856;26.318;2022-07-23T19:28:39;997.4;;;22.7;100
45789;BME280;31492;54.856;26.318;2022-07-23T19:33:39;997.4;;;22.7;100
45789;BME280;31492;54.856;26.318;2022-07-23T19:38:39;997.5;;;22.6;100
45789;BME280;31492;54.856;26.318;2022-07-23T19:43:39;997.5;;;22.5;100
45789;BME280;31492;54.856;26.318;2022-07-23T19:48:39;997.6;;;22.4;100
45789;BME280;31492;54.856;26.318;2022-07-23T19:53:39;997.6;;;22.3;100
45789;BME280;31492;54.856;26.318;2022-07-23T19:58:39;997.6;;;22.2;100
45789;BME280;31492;54.856;26.318;2022-07-23T20:03:39;997.7;;;22.2;100
45789;BME280;31492;54.856;26.318;2022-07-23T20:08:39;997.7;;;22.1;100
45789;BME280;31492;54.856;26.318;2022-07-23T20:13:39;997.7;;;22.1;100
45789;BME280;31492;54.856;26.318;2022-07-23T20:18:39;997.7;;;22;100
45789;BME280;31492;54.856;26.318;2022-07-23T20:23:39;997.7;;;22;100
45789;BME280;31492;54.856;26.318;2022-07-23T20:28:39;997.7;;;21.9;100
45789;BME280;31492;54.856;26.318;2022-07-23T20:33:39;997.8;;;21.8;100
45789;BME280;31492;54.856;26.318;2022-07-23T20:38:39;997.8;;;21.7;100
45789;BME280;31492;54.856;26.318;2022-07-23T20:43:39;997.8;;;21.4;100
45789;BME280;31492;54.856;26.318;2022-07-23T20:48:39;997.8;;;21.3;100
45789;BME280;31492;54.856;26.318;2022-07-23T20:53:39;997.9;;;21.3;100
45789;BME280;31492;54.856;26.318;2022-07-23T20:58:39;997.9;;;21.2;100
45789;BME280;31492;54.856;26.318;2022-07-23T21:03:39;997.9;;;21.1;100
45789;BME280;31492;54.856;26.318;2022-07-23T21:08:39;998;;;21.1;100
45789;BME280;31492;54.856;26.318;2022-07-23T21:13:39;998.1;;;20.9;100
45789;BME280;31492;54.856;26.318;2022-07-23T21:18:39;998.2;;;20.9;100
45789;BME280;31492;54.856;26.318;2022-07-23T21:23:40;998.3;;;20.8;100
45789;BME280;31492;54.856;26.318;2022-07-23T21:28:39;998.2;;;20.8;100
45789;BME280;31492;54.856;26.318;2022-07-23T21:33:39;998.2;;;20.6;100
45789;BME280;31492;54.856;26.318;2022-07-23T21:38:39;998.2;;;20.4;100
45789;BME280;31492;54.856;26.318;2022-07-23T21:43:39;998.2;;;20.4;100
45789;BME280;31492;54.856;26.318;2022-07-23T21:48:39;998.2;;;20.4;100
45789;BME280;31492;54.856;26.318;2022-07-23T21:53:39;998.2;;;20.4;100
45789;BME280;31492;54.856;26.318;2022-07-23T21:58:39;998.2;;;20.4;100
45789;BME280;31492;54.856;26.318;2022-07-23T22:03:39;998.2;;;20.4;100
45789;BME280;31492;54.856;26.318;2022-07-23T22:08:39;998.2;;;20.4;100
45789;BME280;31492;54.856;26.318;2022-07-23T22:13:39;998.2;;;20.4;100
45789;BME280;31492;54.856;26.318;2022-07-23T22:18:39;998.2;;;20.4;100
45789;BME280;31492;54.856;26.318;2022-07-23T22:23:39;998.2;;;20.4;100
45789;BME280;31492;54.856;26.318;2022-07-23T22:28:39;998.2;;;20.4;100
45789;BME280;31492;54.856;26.318;2022-07-23T22:33:39;998.2;;;20.4;100
45789;BME280;31492;54.856;26.318;2022-07-23T22:38:39;998.2;;;20.4;100
45789;BME280;31492;54.856;26.318;2022-07-23T22:43:39;998.2;;;20.4;100
45789;BME280;31492;54.856;26.318;2022-07-23T22:48:39;998.2;;;20.4;100
45789;BME280;31492;54.856;26.318;2022-07-23T22:53:39;998.2;;;20.4;100
45789;BME280;31492;54.856;26.318;2022-07-23T22:58:39;998.2;;;20.4;100
45789;BME280;31492;54.856;26.318;2022-07-23T23:03:39;998.2;;;20.4;100
45789;BME280;31492;54.856;26.318;2022-07-23T23:08:39;998.2;;;20.4;100
45789;BME280;31492;54.856;26.318;2022-07-23T23:13:39;998.2;;;20.4;100
45789;BME280;31492;54.856;26.318;2022-07-23T23:18:39;998.2;;;20.4;100
45789;BME280;31492;54.856;26.318;2022-07-23T23:23:39;998.2;;;20.4;100
45789;BME280;31492;54.856;26.318;2022-07-23T23:28:39;998.2;;;20.4;100
45789;BME280;31492;54.856;26.318;2022-07-23T23:33:39;998.2;;;20.4;100
45789;BME280;31492;54.856;26.318;2022-07-23T23:38:39;998.2;;;20.4;100
45789;BME280;31492;54.856;26.318;2022-07-23T23:43:39;998.2;;;20.4;100
45789;BME280;31492;54.856;26.318;2022-07-23T23:48:39;998.2;;;20.4;100
45789;BME280;31492;54.856;26.318;2022-07-23T23:53:39;998.2;;;20.4;100
45789;BME280;31492;54.856;26.318;2022-07-23T23:58:39;998.2;;;20.4;100
